createdAt,value
2018-03-31T00:00:49.767Z,1000.53
2018-03-31T00:01:58.890Z,1000.45
2018-03-31T00:03:07.718Z,1000.46
2018-03-31T00:04:16.825Z,1000.37
2018-03-31T00:05:25.656Z,1000.35
2018-03-31T00:06:34.485Z,1000.39
2018-03-31T00:07:43.318Z,1000.39
2018-03-31T00:08:52.147Z,1000.34
2018-03-31T00:10:00.975Z,1000.33
2018-03-31T00:11:09.805Z,1000.31
2018-03-31T00:12:18.913Z,1000.23
2018-03-31T00:13:27.794Z,1000.32
2018-03-31T00:14:39.079Z,1000.28
2018-03-31T00:15:47.911Z,1000.25
2018-03-31T00:16:56.745Z,1000.34
2018-03-31T00:18:05.575Z,1000.3
2018-03-31T00:19:14.690Z,1000.22
2018-03-31T00:20:23.843Z,1000.25
2018-03-31T00:21:32.675Z,1000.25
2018-03-31T00:22:41.504Z,1000.22
2018-03-31T00:23:50.335Z,1000.19
2018-03-31T00:24:59.166Z,1000.18
2018-03-31T00:26:08.574Z,1000.18
2018-03-31T00:27:17.405Z,1000.22
2018-03-31T00:28:26.241Z,1000.18
2018-03-31T00:29:35.066Z,1000.15
2018-03-31T00:30:43.902Z,1000.11
2018-03-31T00:31:52.886Z,1000.07
2018-03-31T00:33:01.713Z,1000.02
2018-03-31T00:34:10.545Z,1000.01
2018-03-31T00:35:19.374Z,1000.01
2018-03-31T00:36:28.206Z,1000.1
2018-03-31T00:37:37.148Z,1000.1
2018-03-31T00:38:46.251Z,1000.12
2018-03-31T00:39:55.082Z,1000.13
2018-03-31T00:41:03.914Z,1000.11
2018-03-31T00:42:12.746Z,1000.12
2018-03-31T00:43:22.102Z,1000.12
2018-03-31T00:44:31.210Z,1000.09
2018-03-31T00:45:40.040Z,1000.07
2018-03-31T00:46:48.877Z,1000.13
2018-03-31T00:47:57.702Z,1000.03
2018-03-31T00:49:06.531Z,1000.07
2018-03-31T00:50:15.363Z,1000.02
2018-03-31T00:51:24.194Z,1000.02
2018-03-31T00:52:33.023Z,1000.05
2018-03-31T00:53:42.128Z,1000.01
2018-03-31T00:54:51.208Z,1000.02
2018-03-31T00:56:00.039Z,999.95
2018-03-31T00:57:08.874Z,999.97
2018-03-31T00:58:17.702Z,999.91
2018-03-31T00:59:26.534Z,999.97
2018-03-31T01:00:35.367Z,999.95
2018-03-31T01:01:44.197Z,999.99
2018-03-31T01:02:53.031Z,999.94
2018-03-31T01:04:01.858Z,999.94
2018-03-31T01:05:10.694Z,999.92
2018-03-31T01:06:19.619Z,999.96
2018-03-31T01:07:28.451Z,1000.01
2018-03-31T01:08:37.281Z,1000.05
2018-03-31T01:09:46.111Z,1000.05
2018-03-31T01:10:55.227Z,1000.08
2018-03-31T01:12:04.199Z,1000.05
2018-03-31T01:13:13.318Z,1000.07
2018-03-31T01:14:22.149Z,1000.12
2018-03-31T01:15:31.258Z,1000.11
2018-03-31T01:16:40.090Z,1000.1
2018-03-31T01:17:49.300Z,1000.15
2018-03-31T01:18:58.130Z,1000.16
2018-03-31T01:20:06.961Z,1000.18
2018-03-31T01:21:15.788Z,1000.25
2018-03-31T01:22:24.621Z,1000.31
2018-03-31T01:23:33.982Z,1000.44
2018-03-31T01:24:42.814Z,1000.49
2018-03-31T01:25:51.922Z,1000.64
2018-03-31T01:27:00.755Z,1000.75
2018-03-31T01:28:09.861Z,1000.9
2018-03-31T01:29:18.694Z,1000.93
2018-03-31T01:30:27.526Z,1000.88
2018-03-31T01:31:36.357Z,1000.92
2018-03-31T01:32:45.469Z,1000.86
2018-03-31T01:33:54.297Z,1000.89
2018-03-31T01:35:03.127Z,1000.86
2018-03-31T01:36:11.958Z,1000.9
2018-03-31T01:37:20.790Z,1000.89
2018-03-31T01:38:29.622Z,1000.88
2018-03-31T01:39:38.451Z,1000.82
2018-03-31T01:40:47.381Z,1000.86
2018-03-31T01:41:56.501Z,1000.83
2018-03-31T01:43:05.342Z,1000.84
2018-03-31T01:44:14.169Z,1000.85
2018-03-31T01:45:23.001Z,1000.86
2018-03-31T01:46:32.133Z,1000.86
2018-03-31T01:47:40.962Z,1000.86
2018-03-31T01:48:49.794Z,1000.82
2018-03-31T01:49:58.628Z,1000.83
2018-03-31T01:51:07.514Z,1000.86
2018-03-31T01:52:48.504Z,1000.82
2018-03-31T01:53:57.332Z,1000.86
2018-03-31T01:55:06.165Z,1000.86
2018-03-31T01:56:14.994Z,1000.84
2018-03-31T01:57:24.252Z,1000.89
2018-03-31T01:58:33.083Z,1000.89
2018-03-31T01:59:41.960Z,1000.9
2018-03-31T02:00:50.743Z,1000.89
2018-03-31T02:01:59.573Z,1000.82
2018-03-31T02:03:08.555Z,1000.8
2018-03-31T02:04:17.387Z,1000.73
2018-03-31T02:05:26.222Z,1000.72
2018-03-31T02:06:35.336Z,1000.75
2018-03-31T02:07:44.170Z,1000.71
2018-03-31T02:08:53.153Z,1000.69
2018-03-31T02:10:01.983Z,1000.7
2018-03-31T02:11:11.098Z,1000.67
2018-03-31T02:12:20.206Z,1000.59
2018-03-31T02:13:29.041Z,1000.6
2018-03-31T02:14:38.218Z,1000.57
2018-03-31T02:15:47.050Z,1000.57
2018-03-31T02:16:55.882Z,1000.61
2018-03-31T02:18:04.714Z,1000.55
2018-03-31T02:19:13.544Z,1000.55
2018-03-31T02:20:22.681Z,1000.53
2018-03-31T02:21:31.508Z,1000.53
2018-03-31T02:22:40.341Z,1000.52
2018-03-31T02:23:49.173Z,1000.54
2018-03-31T02:24:58.004Z,1000.52
2018-03-31T02:26:07.087Z,1000.5
2018-03-31T02:27:15.918Z,1000.43
2018-03-31T02:28:24.748Z,1000.46
2018-03-31T02:29:33.578Z,1000.43
2018-03-31T02:30:42.414Z,1000.42
2018-03-31T02:31:51.345Z,1000.41
2018-03-31T02:33:00.178Z,1000.41
2018-03-31T02:34:09.303Z,1000.45
2018-03-31T02:35:18.136Z,1000.47
2018-03-31T02:36:26.967Z,1000.51
2018-03-31T02:37:35.950Z,1000.5
2018-03-31T02:38:44.787Z,1000.43
2018-03-31T02:39:53.617Z,1000.45
2018-03-31T02:41:02.727Z,1000.45
2018-03-31T02:42:11.558Z,1000.42
2018-03-31T02:43:20.495Z,1000.38
2018-03-31T02:44:29.325Z,1000.37
2018-03-31T02:45:38.160Z,1000.36
2018-03-31T02:46:46.990Z,1000.43
2018-03-31T02:47:55.822Z,1000.41
2018-03-31T02:49:05.085Z,1000.41
2018-03-31T02:50:13.913Z,1000.43
2018-03-31T02:51:23.027Z,1000.38
2018-03-31T02:52:31.861Z,1000.34
2018-03-31T02:53:40.967Z,1000.32
2018-03-31T02:54:50.770Z,1000.33
2018-03-31T02:56:00.159Z,1000.34
2018-03-31T02:57:08.992Z,1000.33
2018-03-31T02:58:17.831Z,1000.32
2018-03-31T02:59:26.666Z,1000.32
2018-03-31T03:00:35.540Z,1000.33
2018-03-31T03:01:44.373Z,1000.34
2018-03-31T03:02:53.202Z,1000.33
2018-03-31T03:04:02.036Z,1000.31
2018-03-31T03:05:10.864Z,1000.37
2018-03-31T03:06:19.898Z,1000.38
2018-03-31T03:07:28.729Z,1000.45
2018-03-31T03:08:37.840Z,1000.41
2018-03-31T03:09:46.673Z,1000.41
2018-03-31T03:10:55.510Z,1000.4
2018-03-31T03:12:04.487Z,1000.42
2018-03-31T03:13:13.596Z,1000.39
2018-03-31T03:14:22.428Z,1000.4
2018-03-31T03:15:31.258Z,1000.34
2018-03-31T03:16:40.366Z,1000.32
2018-03-31T03:17:49.623Z,1000.26
2018-03-31T03:18:58.459Z,1000.28
2018-03-31T03:20:07.284Z,1000.29
2018-03-31T03:21:16.114Z,1000.27
2018-03-31T03:22:24.943Z,1000.25
2018-03-31T03:23:33.773Z,1000.22
2018-03-31T03:24:42.604Z,1000.24
2018-03-31T03:25:51.713Z,1000.22
2018-03-31T03:27:00.544Z,1000.28
2018-03-31T03:28:09.374Z,1000.3
2018-03-31T03:29:18.403Z,1000.31
2018-03-31T03:30:27.248Z,1000.35
2018-03-31T03:31:36.639Z,1000.35
2018-03-31T03:32:45.470Z,1000.36
2018-03-31T03:33:54.299Z,1000.29
2018-03-31T03:35:03.130Z,1000.28
2018-03-31T03:36:11.960Z,1000.27
2018-03-31T03:37:20.794Z,1000.26
2018-03-31T03:38:29.619Z,1000.27
2018-03-31T03:39:38.450Z,1000.27
2018-03-31T03:40:47.582Z,1000.33
2018-03-31T03:41:56.412Z,1000.31
2018-03-31T03:43:05.240Z,1000.31
2018-03-31T03:44:14.072Z,1000.33
2018-03-31T03:45:22.902Z,1000.28
2018-03-31T03:46:31.832Z,1000.28
2018-03-31T03:47:40.664Z,1000.24
2018-03-31T03:48:49.767Z,1000.24
2018-03-31T03:49:58.596Z,1000.25
2018-03-31T03:51:07.428Z,1000.25
2018-03-31T03:52:16.408Z,1000.23
2018-03-31T03:53:25.793Z,1000.33
2018-03-31T03:54:34.623Z,1000.27
2018-03-31T03:55:43.452Z,1000.32
2018-03-31T03:56:52.294Z,1000.32
2018-03-31T03:58:01.264Z,1000.32
2018-03-31T03:59:10.095Z,1000.32
2018-03-31T04:00:18.925Z,1000.27
2018-03-31T04:01:27.755Z,1000.32
2018-03-31T04:02:36.585Z,1000.32
2018-03-31T04:03:45.415Z,1000.31
2018-03-31T04:04:54.247Z,1000.28
2018-03-31T04:06:03.077Z,1000.27
2018-03-31T04:07:11.910Z,1000.2
2018-03-31T04:08:20.747Z,1000.22
2018-03-31T04:09:29.630Z,1000.22
2018-03-31T04:10:38.461Z,1000.25
2018-03-31T04:11:47.294Z,1000.26
2018-03-31T04:12:56.398Z,1000.28
2018-03-31T04:14:05.227Z,1000.31
2018-03-31T04:15:14.205Z,1000.25
2018-03-31T04:16:23.314Z,1000.24
2018-03-31T04:17:32.144Z,1000.23
2018-03-31T04:18:40.983Z,1000.23
2018-03-31T04:19:49.806Z,1000.24
2018-03-31T04:20:58.786Z,1000.21
2018-03-31T04:22:07.615Z,1000.21
2018-03-31T04:23:16.445Z,1000.21
2018-03-31T04:24:25.277Z,1000.27
2018-03-31T04:25:34.106Z,1000.29
2018-03-31T04:26:43.186Z,1000.26
2018-03-31T04:27:52.297Z,1000.29
2018-03-31T04:29:01.128Z,1000.3
2018-03-31T04:30:09.956Z,1000.33
2018-03-31T04:31:18.791Z,1000.38
2018-03-31T04:32:27.621Z,1000.36
2018-03-31T04:33:36.450Z,1000.37
2018-03-31T04:34:45.278Z,1000.34
2018-03-31T04:35:54.108Z,1000.36
2018-03-31T04:37:03.223Z,1000.34
2018-03-31T04:38:12.332Z,1000.37
2018-03-31T04:39:21.159Z,1000.37
2018-03-31T04:40:29.988Z,1000.35
2018-03-31T04:41:38.820Z,1000.34
2018-03-31T04:42:47.649Z,1000.34
2018-03-31T04:43:56.578Z,1000.33
2018-03-31T04:45:05.406Z,1000.34
2018-03-31T04:46:14.239Z,1000.36
2018-03-31T04:47:23.066Z,1000.37
2018-03-31T04:48:31.895Z,1000.4
2018-03-31T04:49:41.275Z,1000.4
2018-03-31T04:50:50.104Z,1000.4
2018-03-31T04:51:58.935Z,1000.39
2018-03-31T04:53:07.765Z,1000.45
2018-03-31T04:54:16.869Z,1000.41
2018-03-31T04:55:25.698Z,1000.47
2018-03-31T04:56:34.527Z,1000.51
2018-03-31T04:57:43.354Z,1000.5
2018-03-31T04:58:52.182Z,1000.47
2018-03-31T05:00:01.289Z,1000.52
2018-03-31T05:01:10.126Z,1000.49
2018-03-31T05:02:18.950Z,1000.55
2018-03-31T05:03:28.054Z,1000.48
2018-03-31T05:04:36.882Z,1000.54
2018-03-31T05:05:45.717Z,1000.54
2018-03-31T05:06:54.591Z,1000.54
2018-03-31T05:08:03.421Z,1000.58
2018-03-31T05:09:12.526Z,1000.58
2018-03-31T05:10:21.356Z,1000.58
2018-03-31T05:11:30.190Z,1000.64
2018-03-31T05:12:39.022Z,1000.61
2018-03-31T05:13:47.857Z,1000.62
2018-03-31T05:14:56.965Z,1000.63
2018-03-31T05:16:05.795Z,1000.6
2018-03-31T05:17:14.624Z,1000.62
2018-03-31T05:18:23.455Z,1000.6
2018-03-31T05:19:32.285Z,1000.64
2018-03-31T05:20:41.112Z,1000.61
2018-03-31T05:21:49.943Z,1000.62
2018-03-31T05:22:58.775Z,1000.61
2018-03-31T05:24:08.134Z,1000.64
2018-03-31T05:25:16.967Z,1000.68
2018-03-31T05:26:25.834Z,1000.73
2018-03-31T05:27:34.625Z,1000.74
2018-03-31T05:28:43.727Z,1000.76
2018-03-31T05:29:52.855Z,1000.76
2018-03-31T05:31:01.685Z,1000.8
2018-03-31T05:32:10.517Z,1000.87
2018-03-31T05:33:19.348Z,1000.85
2018-03-31T05:34:28.178Z,1000.85
2018-03-31T05:35:37.004Z,1000.84
2018-03-31T05:36:46.112Z,1000.84
2018-03-31T05:37:54.940Z,1000.86
2018-03-31T05:39:03.770Z,1000.87
2018-03-31T05:40:12.598Z,1000.83
2018-03-31T05:41:21.579Z,1000.88
2018-03-31T05:42:30.411Z,1000.87
2018-03-31T05:43:39.242Z,1000.86
2018-03-31T05:44:48.354Z,1000.89
2018-03-31T05:45:57.456Z,1000.9
2018-03-31T05:47:06.287Z,1000.88
2018-03-31T05:48:15.120Z,1000.89
2018-03-31T05:49:23.951Z,1000.92
2018-03-31T05:50:33.059Z,1000.92
2018-03-31T05:51:41.891Z,1000.88
2018-03-31T05:52:50.870Z,1000.91
2018-03-31T05:53:59.699Z,1000.86
2018-03-31T05:55:08.529Z,1000.92
2018-03-31T05:56:17.361Z,1000.88
2018-03-31T05:57:26.190Z,1000.9
2018-03-31T05:58:35.167Z,1000.86
2018-03-31T05:59:43.998Z,1000.87
2018-03-31T06:00:53.104Z,1000.89
2018-03-31T06:02:01.937Z,1000.97
2018-03-31T06:03:10.766Z,1000.89
2018-03-31T06:04:19.598Z,1000.95
2018-03-31T06:05:28.427Z,1000.94
2018-03-31T06:06:37.534Z,1000.93
2018-03-31T06:07:46.363Z,1000.92
2018-03-31T06:08:55.197Z,1000.91
2018-03-31T06:10:04.029Z,1000.91
2018-03-31T06:11:12.857Z,1000.93
2018-03-31T06:12:21.968Z,1000.96
2018-03-31T06:13:30.799Z,1000.93
2018-03-31T06:14:40.076Z,1000.96
2018-03-31T06:15:49.179Z,1000.95
2018-03-31T06:16:58.009Z,1001.01
2018-03-31T06:18:06.840Z,1001
2018-03-31T06:19:15.674Z,1000.99
2018-03-31T06:20:24.502Z,1001.05
2018-03-31T06:21:33.484Z,1001.06
2018-03-31T06:22:42.317Z,1001.05
2018-03-31T06:23:51.147Z,1001.05
2018-03-31T06:24:59.980Z,1001.09
2018-03-31T06:26:09.092Z,1001.08
2018-03-31T06:27:17.924Z,1001.09
2018-03-31T06:28:26.760Z,1001.07
2018-03-31T06:29:35.862Z,1001.05
2018-03-31T06:30:44.694Z,1001.07
2018-03-31T06:31:53.580Z,1000.99
2018-03-31T06:33:02.454Z,1001.07
2018-03-31T06:34:11.285Z,1001.1
2018-03-31T06:35:20.115Z,1001.13
2018-03-31T06:36:28.945Z,1001.13
2018-03-31T06:37:37.776Z,1001.15
2018-03-31T06:38:46.906Z,1001.17
2018-03-31T06:39:55.737Z,1001.14
2018-03-31T06:41:04.566Z,1001.12
2018-03-31T06:42:13.398Z,1001.16
2018-03-31T06:43:22.229Z,1001.12
2018-03-31T06:44:31.060Z,1001.11
2018-03-31T06:45:39.890Z,1001.09
2018-03-31T06:46:48.720Z,1001.11
2018-03-31T06:47:57.550Z,1001.06
2018-03-31T06:49:06.658Z,1001.09
2018-03-31T06:50:15.586Z,1001.13
2018-03-31T06:51:24.417Z,1001.1
2018-03-31T06:52:33.248Z,1001.17
2018-03-31T06:53:42.074Z,1001.26
2018-03-31T06:54:50.907Z,1001.27
2018-03-31T06:55:59.840Z,1001.3
2018-03-31T06:57:08.671Z,1001.37
2018-03-31T06:58:17.504Z,1001.33
2018-03-31T06:59:26.337Z,1001.29
2018-03-31T07:00:35.442Z,1001.3
2018-03-31T07:01:44.847Z,1001.3
2018-03-31T07:02:53.678Z,1001.28
2018-03-31T07:04:02.512Z,1001.31
2018-03-31T07:05:11.343Z,1001.3
2018-03-31T07:06:20.173Z,1001.32
2018-03-31T07:07:29.155Z,1001.33
2018-03-31T07:08:37.984Z,1001.32
2018-03-31T07:09:46.813Z,1001.34
2018-03-31T07:10:55.644Z,1001.34
2018-03-31T07:12:04.476Z,1001.32
2018-03-31T07:13:13.608Z,1001.28
2018-03-31T07:14:22.437Z,1001.25
2018-03-31T07:15:31.272Z,1001.26
2018-03-31T07:16:40.097Z,1001.24
2018-03-31T07:17:48.927Z,1001.28
2018-03-31T07:18:58.004Z,1001.28
2018-03-31T07:20:06.835Z,1001.24
2018-03-31T07:21:15.667Z,1001.27
2018-03-31T07:22:24.495Z,1001.26
2018-03-31T07:23:33.324Z,1001.25
2018-03-31T07:24:42.462Z,1001.21
2018-03-31T07:25:51.567Z,1001.24
2018-03-31T07:27:00.398Z,1001.21
2018-03-31T07:28:09.227Z,1001.19
2018-03-31T07:29:18.331Z,1001.2
2018-03-31T07:30:27.210Z,1001.22
2018-03-31T07:31:36.040Z,1001.28
2018-03-31T07:32:44.871Z,1001.26
2018-03-31T07:33:53.699Z,1001.27
2018-03-31T07:35:03.077Z,1001.27
2018-03-31T07:36:12.006Z,1001.26
2018-03-31T07:37:20.837Z,1001.3
2018-03-31T07:38:29.666Z,1001.31
2018-03-31T07:39:38.498Z,1001.34
2018-03-31T07:40:47.632Z,1001.35
2018-03-31T07:41:56.581Z,1001.35
2018-03-31T07:43:05.689Z,1001.35
2018-03-31T07:44:14.518Z,1001.38
2018-03-31T07:45:23.350Z,1001.41
2018-03-31T07:46:32.180Z,1001.39
2018-03-31T07:47:41.109Z,1001.41
2018-03-31T07:48:49.937Z,1001.39
2018-03-31T07:49:58.768Z,1001.4
2018-03-31T07:51:07.597Z,1001.4
2018-03-31T07:52:16.426Z,1001.41
2018-03-31T07:53:25.413Z,1001.44
2018-03-31T07:54:34.240Z,1001.43
2018-03-31T07:55:43.069Z,1001.42
2018-03-31T07:56:51.898Z,1001.5
2018-03-31T07:58:00.725Z,1001.51
2018-03-31T07:59:09.558Z,1001.56
2018-03-31T08:00:18.388Z,1001.62
2018-03-31T08:01:27.500Z,1001.63
2018-03-31T08:02:36.330Z,1001.66
2018-03-31T08:03:45.435Z,1001.66
2018-03-31T08:04:54.421Z,1001.65
2018-03-31T08:06:03.530Z,1001.62
2018-03-31T08:07:12.360Z,1001.57
2018-03-31T08:08:21.468Z,1001.55
2018-03-31T08:09:30.297Z,1001.61
2018-03-31T08:10:39.427Z,1001.58
2018-03-31T08:11:48.258Z,1001.61
2018-03-31T08:12:57.087Z,1001.59
2018-03-31T08:14:05.930Z,1001.59
2018-03-31T08:15:15.038Z,1001.58
2018-03-31T08:16:23.927Z,1001.55
2018-03-31T08:17:32.748Z,1001.51
2018-03-31T08:18:41.851Z,1001.54
2018-03-31T08:19:50.680Z,1001.52
2018-03-31T08:20:59.514Z,1001.56
2018-03-31T08:22:08.349Z,1001.54
2018-03-31T08:23:17.180Z,1001.58
2018-03-31T08:24:26.011Z,1001.53
2018-03-31T08:25:34.839Z,1001.56
2018-03-31T08:26:43.670Z,1001.55
2018-03-31T08:27:52.926Z,1001.53
2018-03-31T08:29:01.757Z,1001.57
2018-03-31T08:30:10.585Z,1001.57
2018-03-31T08:31:19.696Z,1001.6
2018-03-31T08:32:28.526Z,1001.66
2018-03-31T08:33:37.358Z,1001.63
2018-03-31T08:34:46.189Z,1001.64
2018-03-31T08:35:55.299Z,1001.63
2018-03-31T08:37:04.126Z,1001.59
2018-03-31T08:38:12.960Z,1001.57
2018-03-31T08:39:21.838Z,1001.56
2018-03-31T08:40:30.669Z,1001.5
2018-03-31T08:41:39.528Z,1001.56
2018-03-31T08:42:48.952Z,1001.57
2018-03-31T08:43:57.780Z,1001.53
2018-03-31T08:45:06.889Z,1001.57
2018-03-31T08:46:15.725Z,1001.53
2018-03-31T08:47:24.552Z,1001.53
2018-03-31T08:48:33.382Z,1001.57
2018-03-31T08:49:42.488Z,1001.55
2018-03-31T08:50:51.619Z,1001.56
2018-03-31T08:52:00.453Z,1001.55
2018-03-31T08:53:09.282Z,1001.59
2018-03-31T08:54:18.113Z,1001.59
2018-03-31T08:55:26.943Z,1001.59
2018-03-31T08:56:35.925Z,1001.63
2018-03-31T08:57:44.755Z,1001.54
2018-03-31T08:58:53.586Z,1001.59
2018-03-31T09:00:02.423Z,1001.59
2018-03-31T09:01:11.252Z,1001.62
2018-03-31T09:02:20.184Z,1001.59
2018-03-31T09:03:29.017Z,1001.61
2018-03-31T09:04:37.849Z,1001.63
2018-03-31T09:05:46.682Z,1001.64
2018-03-31T09:06:55.514Z,1001.62
2018-03-31T09:08:04.496Z,1001.64
2018-03-31T09:09:13.416Z,1001.68
2018-03-31T09:10:22.157Z,1001.64
2018-03-31T09:11:30.992Z,1001.64
2018-03-31T09:12:39.824Z,1001.68
2018-03-31T09:13:48.805Z,1001.63
2018-03-31T09:14:57.641Z,1001.6
2018-03-31T09:16:06.745Z,1001.59
2018-03-31T09:17:15.572Z,1001.64
2018-03-31T09:18:24.412Z,1001.62
2018-03-31T09:19:33.388Z,1001.64
2018-03-31T09:20:42.222Z,1001.63
2018-03-31T09:21:51.054Z,1001.65
2018-03-31T09:22:59.939Z,1001.62
2018-03-31T09:24:08.719Z,1001.65
2018-03-31T09:25:17.714Z,1001.63
2018-03-31T09:26:26.809Z,1001.63
2018-03-31T09:27:35.640Z,1001.65
2018-03-31T09:28:44.469Z,1001.63
2018-03-31T09:29:53.298Z,1001.64
2018-03-31T09:31:02.187Z,1001.69
2018-03-31T09:32:11.579Z,1001.68
2018-03-31T09:33:20.408Z,1001.66
2018-03-31T09:34:29.241Z,1001.66
2018-03-31T09:35:38.364Z,1001.65
2018-03-31T09:36:47.346Z,1001.63
2018-03-31T09:37:56.456Z,1001.67
2018-03-31T09:39:05.286Z,1001.62
2018-03-31T09:40:14.118Z,1001.64
2018-03-31T09:41:22.954Z,1001.64
2018-03-31T09:42:31.931Z,1001.62
2018-03-31T09:43:40.762Z,1001.68
2018-03-31T09:44:49.595Z,1001.7
2018-03-31T09:45:58.699Z,1001.69
2018-03-31T09:47:07.531Z,1001.65
2018-03-31T09:48:16.664Z,1001.69
2018-03-31T09:49:25.501Z,1001.67
2018-03-31T09:50:34.322Z,1001.7
2018-03-31T09:51:43.157Z,1001.73
2018-03-31T09:52:51.990Z,1001.76
2018-03-31T09:54:01.221Z,1001.74
2018-03-31T09:55:10.052Z,1001.73
2018-03-31T09:56:18.883Z,1001.77
2018-03-31T09:57:27.715Z,1001.73
2018-03-31T09:58:36.544Z,1001.79
2018-03-31T09:59:45.473Z,1001.77
2018-03-31T10:00:54.302Z,1001.73
2018-03-31T10:02:03.410Z,1001.73
2018-03-31T10:03:12.242Z,1001.76
2018-03-31T10:04:21.073Z,1001.73
2018-03-31T10:05:30.003Z,1001.76
2018-03-31T10:06:38.835Z,1001.74
2018-03-31T10:07:47.665Z,1001.73
2018-03-31T10:08:56.502Z,1001.78
2018-03-31T10:10:05.328Z,1001.78
2018-03-31T10:11:14.410Z,1001.75
2018-03-31T10:12:23.240Z,1001.71
2018-03-31T10:13:32.073Z,1001.7
2018-03-31T10:14:40.904Z,1001.72
2018-03-31T10:15:50.014Z,1001.72
2018-03-31T10:16:58.846Z,1001.72
2018-03-31T10:18:07.679Z,1001.73
2018-03-31T10:19:16.512Z,1001.69
2018-03-31T10:20:25.345Z,1001.68
2018-03-31T10:21:34.180Z,1001.69
2018-03-31T10:22:43.287Z,1001.65
2018-03-31T10:23:52.125Z,1001.73
2018-03-31T10:25:00.951Z,1001.69
2018-03-31T10:26:09.782Z,1001.72
2018-03-31T10:27:18.896Z,1001.7
2018-03-31T10:28:28.053Z,1001.74
2018-03-31T10:29:36.882Z,1001.72
2018-03-31T10:30:45.717Z,1001.77
2018-03-31T10:31:54.549Z,1001.73
2018-03-31T10:33:03.380Z,1001.74
2018-03-31T10:34:12.364Z,1001.69
2018-03-31T10:35:21.250Z,1001.66
2018-03-31T10:36:30.084Z,1001.69
2018-03-31T10:37:38.860Z,1001.68
2018-03-31T10:38:47.689Z,1001.64
2018-03-31T10:39:56.852Z,1001.72
2018-03-31T10:41:05.690Z,1001.68
2018-03-31T10:42:14.516Z,1001.68
2018-03-31T10:43:23.914Z,1001.69
2018-03-31T10:44:32.747Z,1001.71
2018-03-31T10:45:41.729Z,1001.69
2018-03-31T10:46:50.560Z,1001.72
2018-03-31T10:47:59.396Z,1001.68
2018-03-31T10:49:08.508Z,1001.72
2018-03-31T10:50:17.336Z,1001.72
2018-03-31T10:51:26.170Z,1001.71
2018-03-31T10:52:35.006Z,1001.71
2018-03-31T10:53:43.840Z,1001.74
2018-03-31T10:54:52.673Z,1001.74
2018-03-31T10:56:01.505Z,1001.71
2018-03-31T10:57:10.866Z,1001.76
2018-03-31T10:58:19.697Z,1001.77
2018-03-31T10:59:28.531Z,1001.75
2018-03-31T11:00:37.363Z,1001.75
2018-03-31T11:01:46.472Z,1001.77
2018-03-31T11:02:55.355Z,1001.75
2018-03-31T11:04:04.187Z,1001.79
2018-03-31T11:05:13.020Z,1001.79
2018-03-31T11:06:21.852Z,1001.75
2018-03-31T11:07:30.687Z,1001.75
2018-03-31T11:08:39.796Z,1001.76
2018-03-31T11:09:48.632Z,1001.78
2018-03-31T11:10:57.468Z,1001.74
2018-03-31T11:12:06.301Z,1001.77
2018-03-31T11:13:15.136Z,1001.77
2018-03-31T11:14:23.969Z,1001.77
2018-03-31T11:15:32.807Z,1001.79
2018-03-31T11:16:41.920Z,1001.76
2018-03-31T11:17:50.755Z,1001.73
2018-03-31T11:18:59.865Z,1001.76
2018-03-31T11:20:09.082Z,1001.74
2018-03-31T11:21:17.915Z,1001.79
2018-03-31T11:22:26.757Z,1001.77
2018-03-31T11:23:35.591Z,1001.78
2018-03-31T11:24:44.428Z,1001.79
2018-03-31T11:25:53.265Z,1001.81
2018-03-31T11:27:02.648Z,1001.79
2018-03-31T11:28:11.486Z,1001.76
2018-03-31T11:29:20.323Z,1001.75
2018-03-31T11:30:29.163Z,1001.75
2018-03-31T11:31:38.420Z,1001.76
2018-03-31T11:32:47.256Z,1001.77
2018-03-31T11:33:56.091Z,1001.79
2018-03-31T11:35:04.926Z,1001.73
2018-03-31T11:36:13.764Z,1001.78
2018-03-31T11:37:22.699Z,1001.75
2018-03-31T11:38:31.534Z,1001.75
2018-03-31T11:39:40.368Z,1001.82
2018-03-31T11:40:49.209Z,1001.85
2018-03-31T11:41:58.043Z,1001.85
2018-03-31T11:43:06.929Z,1001.9
2018-03-31T11:44:15.769Z,1001.89
2018-03-31T11:45:24.874Z,1001.85
2018-03-31T11:46:33.708Z,1001.85
2018-03-31T11:47:42.540Z,1001.88
2018-03-31T11:48:51.535Z,1001.87
2018-03-31T11:50:00.308Z,1001.9
2018-03-31T11:51:09.147Z,1001.93
2018-03-31T11:52:18.259Z,1001.91
2018-03-31T11:53:27.366Z,1001.94
2018-03-31T11:54:36.353Z,1001.96
2018-03-31T11:55:45.187Z,1001.95
2018-03-31T11:56:54.021Z,1001.94
2018-03-31T11:58:02.854Z,1001.98
2018-03-31T11:59:11.693Z,1001.96
2018-03-31T12:00:20.525Z,1002.01
2018-03-31T12:01:29.363Z,1001.98
2018-03-31T12:02:38.197Z,1001.97
2018-03-31T12:03:47.030Z,1002.04
2018-03-31T12:04:55.862Z,1002.01
2018-03-31T12:06:04.996Z,1002.03
2018-03-31T12:07:13.830Z,1001.99
2018-03-31T12:08:22.664Z,1002
2018-03-31T12:09:31.498Z,1001.97
2018-03-31T12:10:40.330Z,1002.03
2018-03-31T12:11:49.214Z,1002.05
2018-03-31T12:12:58.053Z,1002.04
2018-03-31T12:14:06.885Z,1002.04
2018-03-31T12:15:15.719Z,1002.06
2018-03-31T12:16:24.550Z,1002.07
2018-03-31T12:17:33.484Z,1002.1
2018-03-31T12:18:42.317Z,1002.1
2018-03-31T12:19:51.152Z,1002.13
2018-03-31T12:20:59.999Z,1002.13
2018-03-31T12:22:09.094Z,1002.11
2018-03-31T12:23:17.928Z,1002.07
2018-03-31T12:24:26.764Z,1002.14
2018-03-31T12:25:35.881Z,1002.13
2018-03-31T12:26:44.996Z,1002.12
2018-03-31T12:27:53.829Z,1002.12
2018-03-31T12:29:02.965Z,1002.07
2018-03-31T12:30:11.799Z,1002.11
2018-03-31T12:31:20.911Z,1002.12
2018-03-31T12:32:29.750Z,1002.1
2018-03-31T12:33:38.578Z,1002.14
2018-03-31T12:34:47.611Z,1002.08
2018-03-31T12:35:56.446Z,1002.09
2018-03-31T12:37:05.280Z,1002.1
2018-03-31T12:38:14.114Z,1002.08
2018-03-31T12:39:23.223Z,1002.08
2018-03-31T12:40:32.056Z,1002.07
2018-03-31T12:41:40.888Z,1002.07
2018-03-31T12:42:49.722Z,1002.04
2018-03-31T12:43:58.558Z,1002.07
2018-03-31T12:45:07.388Z,1002.11
2018-03-31T12:46:16.554Z,1002.12
2018-03-31T12:47:25.384Z,1002.09
2018-03-31T12:48:34.493Z,1002.06
2018-03-31T12:49:43.606Z,1002.07
2018-03-31T12:50:52.720Z,1002.08
2018-03-31T12:52:01.757Z,1002.07
2018-03-31T12:53:10.532Z,1002.06
2018-03-31T12:54:19.372Z,1002.07
2018-03-31T12:55:28.199Z,1002.04
2018-03-31T12:56:37.035Z,1002
2018-03-31T12:57:46.544Z,1002.03
2018-03-31T12:58:55.377Z,1001.98
2018-03-31T13:00:04.210Z,1001.99
2018-03-31T13:01:13.044Z,1001.97
2018-03-31T13:02:21.880Z,1001.92
2018-03-31T13:03:30.763Z,1001.93
2018-03-31T13:04:39.597Z,1001.9
2018-03-31T13:05:48.431Z,1001.89
2018-03-31T13:06:57.263Z,1001.89
2018-03-31T13:08:06.373Z,1001.86
2018-03-31T13:09:15.306Z,1001.88
2018-03-31T13:10:24.139Z,1001.88
2018-03-31T13:11:32.972Z,1001.9
2018-03-31T13:12:41.805Z,1001.9
2018-03-31T13:13:50.637Z,1001.87
2018-03-31T13:14:59.921Z,1001.91
2018-03-31T13:16:08.751Z,1001.89
2018-03-31T13:17:17.586Z,1001.89
2018-03-31T13:18:26.420Z,1001.87
2018-03-31T13:19:35.252Z,1001.84
2018-03-31T13:20:44.284Z,1001.8
2018-03-31T13:21:53.119Z,1001.85
2018-03-31T13:23:01.952Z,1001.81
2018-03-31T13:24:10.784Z,1001.84
2018-03-31T13:25:19.618Z,1001.81
2018-03-31T13:26:28.602Z,1001.81
2018-03-31T13:27:37.712Z,1001.83
2018-03-31T13:28:46.545Z,1001.8
2018-03-31T13:29:55.376Z,1001.77
2018-03-31T13:31:04.549Z,1001.84
2018-03-31T13:32:13.807Z,1001.8
2018-03-31T13:33:22.638Z,1001.84
2018-03-31T13:34:31.472Z,1001.84
2018-03-31T13:35:40.306Z,1001.84
2018-03-31T13:36:49.139Z,1001.87
2018-03-31T13:37:57.970Z,1001.91
2018-03-31T13:39:07.076Z,1001.91
2018-03-31T13:40:15.910Z,1001.93
2018-03-31T13:41:24.743Z,1001.89
2018-03-31T13:42:33.865Z,1001.94
2018-03-31T13:43:42.844Z,1001.9
2018-03-31T13:44:51.681Z,1001.93
2018-03-31T13:46:00.789Z,1001.89
2018-03-31T13:47:09.624Z,1001.95
2018-03-31T13:48:18.733Z,1001.91
2018-03-31T13:49:27.823Z,1001.91
2018-03-31T13:50:36.647Z,1001.92
2018-03-31T13:51:45.491Z,1001.92
2018-03-31T13:52:54.313Z,1001.95
2018-03-31T13:54:03.143Z,1001.94
2018-03-31T13:55:11.974Z,1001.95
2018-03-31T13:56:20.807Z,1001.93
2018-03-31T13:57:29.640Z,1001.94